createdAt,value
2022-10-01T00:00:01.983Z,59.44
2022-10-01T00:01:32.165Z,60.70
2022-10-01T00:02:37.225Z,61.52
2022-10-01T00:03:39.552Z,62.30
2022-10-01T00:04:41.251Z,63.34
2022-10-01T00:05:43.318Z,64.34
2022-10-01T00:06:45.310Z,64.06
2022-10-01T00:07:48.008Z,62.99
2022-10-01T00:08:50.872Z,61.71
2022-10-01T00:09:52.620Z,60.52
2022-10-01T00:10:54.361Z,59.42
2022-10-01T00:11:56.190Z,57.87
2022-10-01T00:12:59.062Z,56.95
2022-10-01T00:14:04.124Z,57.19
2022-10-01T00:15:12.883Z,58.00
2022-10-01T00:16:18.623Z,59.06
2022-10-01T00:17:20.365Z,59.95
2022-10-01T00:18:22.192Z,60.92
2022-10-01T00:19:23.967Z,61.78
2022-10-01T00:20:25.714Z,62.48
2022-10-01T00:21:31.999Z,63.68
2022-10-01T00:22:37.488Z,64.52
2022-10-01T00:23:39.728Z,64.08
2022-10-01T00:24:41.562Z,63.04
2022-10-01T00:25:43.801Z,61.79
2022-10-01T00:26:45.799Z,60.60
2022-10-01T00:27:47.632Z,59.52
2022-10-01T00:28:55.684Z,58.06
2022-10-01T00:29:57.783Z,57.07
2022-10-01T00:30:59.888Z,57.37
2022-10-01T00:32:02.194Z,58.26
2022-10-01T00:33:04.056Z,59.31
2022-10-01T00:34:06.542Z,60.31
2022-10-01T00:35:12.496Z,61.34
2022-10-01T00:36:14.393Z,62.23
2022-10-01T00:37:17.836Z,63.30
2022-10-01T00:38:19.546Z,64.62
2022-10-01T00:39:21.561Z,64.60
2022-10-01T00:40:24.014Z,63.67
2022-10-01T00:41:27.142Z,62.44
2022-10-01T00:42:28.976Z,61.18
2022-10-01T00:43:34.707Z,60.12
2022-10-01T00:44:37.353Z,58.87
2022-10-01T00:45:39.607Z,57.45
2022-10-01T00:46:45.002Z,57.19
2022-10-01T00:47:58.047Z,57.82
2022-10-01T00:49:01.414Z,59.00
2022-10-01T00:50:08.536Z,59.96
2022-10-01T00:51:11.641Z,61.03
2022-10-01T00:52:21.649Z,61.93
2022-10-01T00:53:25.644Z,63.10
2022-10-01T00:54:37.727Z,64.34
2022-10-01T00:55:48.494Z,64.22
2022-10-01T00:56:56.454Z,62.97
2022-10-01T00:57:58.946Z,61.58
2022-10-01T00:59:02.196Z,60.46
2022-10-01T01:00:07.631Z,59.33
2022-10-01T01:01:09.526Z,57.75
2022-10-01T01:02:12.469Z,57.15
2022-10-01T01:03:15.594Z,57.60
2022-10-01T01:04:17.390Z,58.51
2022-10-01T01:05:20.164Z,59.45
2022-10-01T01:06:21.869Z,60.39
2022-10-01T01:07:23.906Z,61.21
2022-10-01T01:08:25.792Z,62.05
2022-10-01T01:09:35.971Z,63.07
2022-10-01T01:10:50.221Z,64.39
2022-10-01T01:12:25.018Z,64.09
2022-10-01T01:13:33.274Z,62.30
2022-10-01T01:15:07.634Z,60.94
2022-10-01T01:16:31.556Z,59.20
2022-10-01T01:18:02.664Z,57.34
2022-10-01T01:19:37.884Z,57.46
2022-10-01T01:21:02.713Z,58.88
2022-10-01T01:22:11.793Z,60.29
2022-10-01T01:23:16.242Z,61.33
2022-10-01T01:24:56.180Z,62.22
2022-10-01T01:26:16.853Z,64.07
2022-10-01T01:27:31.498Z,64.17
2022-10-01T01:28:44.642Z,62.91
2022-10-01T01:30:04.386Z,61.43
2022-10-01T01:31:17.914Z,59.96
2022-10-01T01:33:04.738Z,58.56
2022-10-01T01:34:14.967Z,57.18
2022-10-01T01:35:27.277Z,57.83
2022-10-01T01:36:38.052Z,58.94
2022-10-01T01:37:47.404Z,60.03
2022-10-01T01:38:59.154Z,61.02
2022-10-01T01:40:05.196Z,61.95
2022-10-01T01:41:10.931Z,62.91
2022-10-01T01:42:24.146Z,64.17
2022-10-01T01:43:36.636Z,64.02
2022-10-01T01:44:44.079Z,62.66
2022-10-01T01:45:51.137Z,61.22
2022-10-01T01:46:58.718Z,59.98
2022-10-01T01:48:02.993Z,58.65
2022-10-01T01:49:05.496Z,57.24
2022-10-01T01:50:08.242Z,57.15
2022-10-01T01:51:33.017Z,57.85
2022-10-01T01:52:35.600Z,59.17
2022-10-01T01:53:38.408Z,60.12
2022-10-01T01:54:41.003Z,61.02
2022-10-01T01:55:49.321Z,61.89
2022-10-01T01:56:52.988Z,62.96
2022-10-01T01:57:57.121Z,64.40
2022-10-01T01:59:00.591Z,64.63
2022-10-01T02:00:02.547Z,63.83
2022-10-01T02:01:40.097Z,62.53
2022-10-01T02:02:50.312Z,60.73
2022-10-01T02:03:52.269Z,59.60
2022-10-01T02:05:03.512Z,58.37
2022-10-01T02:06:28.665Z,57.22
2022-10-01T02:07:48.785Z,57.74
2022-10-01T02:09:15.578Z,58.95
2022-10-01T02:10:56.883Z,60.33
2022-10-01T02:12:20.227Z,61.85
2022-10-01T02:13:39.063Z,63.15
2022-10-01T02:14:54.485Z,64.39
2022-10-01T02:16:09.359Z,63.79
2022-10-01T02:17:32.390Z,62.38
2022-10-01T02:18:48.925Z,60.75
2022-10-01T02:20:02.280Z,59.48
2022-10-01T02:21:10.358Z,57.82
2022-10-01T02:22:20.301Z,57.23
2022-10-01T02:23:40.104Z,57.83
2022-10-01T02:24:50.831Z,59.10
2022-10-01T02:25:59.789Z,60.29
2022-10-01T02:27:08.372Z,61.38
2022-10-01T02:28:16.473Z,62.38
2022-10-01T02:29:23.839Z,63.81
2022-10-01T02:30:25.789Z,64.52
2022-10-01T02:31:30.559Z,63.89
2022-10-01T02:32:35.550Z,62.58
2022-10-01T02:33:41.369Z,61.21
2022-10-01T02:34:47.446Z,60.02
2022-10-01T02:35:53.649Z,58.71
2022-10-01T02:36:59.527Z,57.27
2022-10-01T02:38:06.260Z,57.20
2022-10-01T02:39:14.252Z,57.97
2022-10-01T02:40:22.374Z,59.09
2022-10-01T02:41:31.891Z,60.18
2022-10-01T02:42:37.245Z,61.27
2022-10-01T02:44:04.977Z,62.20
2022-10-01T02:45:08.851Z,63.85
2022-10-01T02:46:28.453Z,64.37
2022-10-01T02:47:36.888Z,63.38
2022-10-01T02:48:38.795Z,62.02
2022-10-01T02:49:41.630Z,60.81
2022-10-01T02:50:53.088Z,59.67
2022-10-01T02:52:06.989Z,58.10
2022-10-01T02:53:19.510Z,57.05
2022-10-01T02:54:35.587Z,57.47
2022-10-01T02:55:41.517Z,58.58
2022-10-01T02:57:02.547Z,59.65
2022-10-01T02:58:05.097Z,61.02
2022-10-01T02:59:08.327Z,62.01
2022-10-01T03:00:13.595Z,63.16
2022-10-01T03:01:15.463Z,64.50
2022-10-01T03:02:19.253Z,64.50
2022-10-01T03:03:21.210Z,63.52
2022-10-01T03:04:22.952Z,62.27
2022-10-01T03:05:24.891Z,61.06
2022-10-01T03:06:27.328Z,59.97
2022-10-01T03:07:32.238Z,58.81
2022-10-01T03:08:34.054Z,57.37
2022-10-01T03:09:36.853Z,57.17
2022-10-01T03:10:41.447Z,57.78
2022-10-01T03:11:45.185Z,58.75
2022-10-01T03:12:47.167Z,59.66
2022-10-01T03:13:48.959Z,60.59
2022-10-01T03:14:51.163Z,61.42
2022-10-01T03:15:52.927Z,62.21
2022-10-01T03:16:55.481Z,63.29
2022-10-01T03:17:57.268Z,64.37
2022-10-01T03:18:59.236Z,64.13
2022-10-01T03:20:01.227Z,63.09
2022-10-01T03:21:03.127Z,61.78
2022-10-01T03:22:05.219Z,60.41
2022-10-01T03:23:06.945Z,59.11
2022-10-01T03:24:09.762Z,57.45
2022-10-01T03:25:11.395Z,56.76
2022-10-01T03:26:13.057Z,57.10
2022-10-01T03:27:14.772Z,57.86
2022-10-01T03:28:16.759Z,58.81
2022-10-01T03:29:18.605Z,59.73
2022-10-01T03:30:20.424Z,60.60
2022-10-01T03:31:22.176Z,61.45
2022-10-01T03:32:23.917Z,62.27
2022-10-01T03:33:25.585Z,63.22
2022-10-01T03:34:27.612Z,64.13
2022-10-01T03:35:29.482Z,63.78
2022-10-01T03:36:31.142Z,62.63
2022-10-01T03:37:32.817Z,61.29
2022-10-01T03:38:34.489Z,60.00
2022-10-01T03:39:36.518Z,58.55
2022-10-01T03:40:39.059Z,56.98
2022-10-01T03:41:40.706Z,56.63
2022-10-01T03:42:42.326Z,57.15
2022-10-01T03:43:43.984Z,58.00
2022-10-01T03:44:45.636Z,58.90
2022-10-01T03:45:47.836Z,59.70
2022-10-01T03:46:49.554Z,60.47
2022-10-01T03:47:53.223Z,61.25
2022-10-01T03:48:57.305Z,61.96
2022-10-01T03:49:59.055Z,62.59
2022-10-01T03:51:01.115Z,63.72
2022-10-01T03:52:04.186Z,64.10
2022-10-01T03:53:06.624Z,63.29
2022-10-01T03:54:09.470Z,61.98
2022-10-01T03:55:11.178Z,60.56
2022-10-01T03:56:13.769Z,59.27
2022-10-01T03:57:15.638Z,57.55
2022-10-01T03:58:18.928Z,56.65
2022-10-01T03:59:21.215Z,56.85
2022-10-01T04:00:22.897Z,57.56
2022-10-01T04:01:25.980Z,58.45
2022-10-01T04:02:27.880Z,59.32
2022-10-01T04:03:30.779Z,60.11
2022-10-01T04:04:32.430Z,60.88
2022-10-01T04:05:34.170Z,61.56
2022-10-01T04:06:36.141Z,62.20
2022-10-01T04:07:38.026Z,63.02
2022-10-01T04:08:39.850Z,64.07
2022-10-01T04:09:41.546Z,63.94
2022-10-01T04:10:43.260Z,62.93
2022-10-01T04:11:44.923Z,61.62
2022-10-01T04:12:46.613Z,60.33
2022-10-01T04:13:48.520Z,59.04
2022-10-01T04:14:50.170Z,57.32
2022-10-01T04:15:52.066Z,56.59
2022-10-01T04:16:53.789Z,56.93
2022-10-01T04:17:55.540Z,57.69
2022-10-01T04:18:57.194Z,58.62
2022-10-01T04:20:00.245Z,59.54
2022-10-01T04:21:02.052Z,60.45
2022-10-01T04:22:03.835Z,61.29
2022-10-01T04:23:05.758Z,62.06
2022-10-01T04:24:07.650Z,62.91
2022-10-01T04:25:13.681Z,64.07
2022-10-01T04:26:15.386Z,64.09
2022-10-01T04:27:17.056Z,63.08
2022-10-01T04:28:19.060Z,61.73
2022-10-01T04:29:20.765Z,60.37
2022-10-01T04:30:23.410Z,59.07
2022-10-01T04:31:25.267Z,57.34
2022-10-01T04:32:27.220Z,56.69
2022-10-01T04:33:28.854Z,57.08
2022-10-01T04:34:49.247Z,57.94
2022-10-01T04:35:50.891Z,59.28
2022-10-01T04:36:52.594Z,60.24
2022-10-01T04:38:02.019Z,61.09
2022-10-01T04:39:03.960Z,61.90
2022-10-01T04:40:06.475Z,62.57
2022-10-01T04:41:09.327Z,63.72
2022-10-01T04:42:13.074Z,64.21
2022-10-01T04:43:14.773Z,63.50
2022-10-01T04:44:16.443Z,62.17
2022-10-01T04:45:18.340Z,60.80
2022-10-01T04:46:20.260Z,59.61
2022-10-01T04:47:21.940Z,58.08
2022-10-01T04:48:24.195Z,56.82
2022-10-01T04:49:25.951Z,56.87
2022-10-01T04:50:28.377Z,57.61
2022-10-01T04:51:30.037Z,58.63
2022-10-01T04:52:31.761Z,59.68
2022-10-01T04:53:33.491Z,60.68
2022-10-01T04:54:35.162Z,61.65
2022-10-01T04:55:36.968Z,62.58
2022-10-01T04:56:38.672Z,64.01
2022-10-01T04:57:40.475Z,64.84
2022-10-01T04:58:42.348Z,64.45
2022-10-01T04:59:44.027Z,63.42
2022-10-01T05:00:45.801Z,62.13
2022-10-01T05:01:47.562Z,60.96
2022-10-01T05:02:50.736Z,59.99
2022-10-01T05:03:52.750Z,59.08
2022-10-01T05:04:54.813Z,57.84
2022-10-01T05:05:56.475Z,57.54
2022-10-01T05:06:58.115Z,58.16
2022-10-01T05:07:59.858Z,59.18
2022-10-01T05:09:01.680Z,60.31
2022-10-01T05:10:03.805Z,61.39
2022-10-01T05:11:05.689Z,62.43
2022-10-01T05:12:08.186Z,63.84
2022-10-01T05:13:11.119Z,64.80
2022-10-01T05:14:15.337Z,64.48
2022-10-01T05:15:18.411Z,63.49
2022-10-01T05:16:20.184Z,62.32
2022-10-01T05:17:22.887Z,61.27
2022-10-01T05:18:24.776Z,60.31
2022-10-01T05:19:29.355Z,59.48
2022-10-01T05:20:31.055Z,58.27
2022-10-01T05:21:32.865Z,57.59
2022-10-01T05:22:34.798Z,58.04
2022-10-01T05:23:36.453Z,59.04
2022-10-01T05:24:38.861Z,60.20
2022-10-01T05:25:40.665Z,61.26
2022-10-01T05:26:42.393Z,62.22
2022-10-01T05:27:44.917Z,63.54
2022-10-01T05:28:46.733Z,64.76
2022-10-01T05:29:48.416Z,64.71
2022-10-01T05:30:53.850Z,63.77
2022-10-01T05:31:55.637Z,62.46
2022-10-01T05:33:00.720Z,61.35
2022-10-01T05:34:02.417Z,60.40
2022-10-01T05:35:06.459Z,59.61
2022-10-01T05:36:08.184Z,58.54
2022-10-01T05:37:11.949Z,57.62
2022-10-01T05:38:13.625Z,57.89
2022-10-01T05:39:15.281Z,58.74
2022-10-01T05:40:17.117Z,59.84
2022-10-01T05:41:19.250Z,61.03
2022-10-01T05:42:21.287Z,62.12
2022-10-01T05:43:23.043Z,63.54
2022-10-01T05:44:25.772Z,64.96
2022-10-01T05:45:28.820Z,65.11
2022-10-01T05:46:32.790Z,64.26
2022-10-01T05:47:34.606Z,63.10
2022-10-01T05:48:37.976Z,61.97
2022-10-01T05:49:42.956Z,60.97
2022-10-01T05:50:45.014Z,60.11
2022-10-01T05:51:47.185Z,59.49
2022-10-01T05:52:52.077Z,58.59
2022-10-01T05:53:54.663Z,57.85
2022-10-01T05:54:56.345Z,58.35
2022-10-01T05:56:02.416Z,59.33
2022-10-01T05:57:05.191Z,60.49
2022-10-01T05:58:10.571Z,61.68
2022-10-01T05:59:12.330Z,63.01
2022-10-01T06:00:14.765Z,64.70
2022-10-01T06:01:16.754Z,65.33
2022-10-01T06:02:18.596Z,64.83
2022-10-01T06:03:20.444Z,63.77
2022-10-01T06:04:22.335Z,62.62
2022-10-01T06:05:24.833Z,61.55
2022-10-01T06:06:27.657Z,60.70
2022-10-01T06:07:32.039Z,60.04
2022-10-01T06:08:35.053Z,59.42
2022-10-01T06:09:36.712Z,58.34
2022-10-01T06:10:38.848Z,57.92
2022-10-01T06:11:40.672Z,58.49
2022-10-01T06:12:43.313Z,59.53
2022-10-01T06:13:45.613Z,60.70
2022-10-01T06:14:47.561Z,61.93
2022-10-01T06:15:53.011Z,63.29
2022-10-01T06:16:55.031Z,64.97
2022-10-01T06:17:56.976Z,65.19
2022-10-01T06:18:58.721Z,64.38
2022-10-01T06:20:00.941Z,63.28
2022-10-01T06:21:03.302Z,62.14
2022-10-01T06:22:05.051Z,61.21
2022-10-01T06:23:12.207Z,60.43
2022-10-01T06:24:14.093Z,59.73
2022-10-01T06:25:15.942Z,59.15
2022-10-01T06:26:19.392Z,58.06
2022-10-01T06:27:27.077Z,57.97
2022-10-01T06:28:29.138Z,58.79
2022-10-01T06:29:30.819Z,59.91
2022-10-01T06:30:36.391Z,61.05
2022-10-01T06:31:38.609Z,62.25
2022-10-01T06:32:43.237Z,63.82
2022-10-01T06:33:45.193Z,65.19
2022-10-01T06:34:47.018Z,65.31
2022-10-01T06:35:51.852Z,64.59
2022-10-01T06:36:53.505Z,63.48
2022-10-01T06:37:55.349Z,62.49
2022-10-01T06:38:57.811Z,61.70
2022-10-01T06:40:00.026Z,60.81
2022-10-01T06:41:03.813Z,60.20
2022-10-01T06:42:05.667Z,59.87
2022-10-01T06:43:08.416Z,59.23
2022-10-01T06:44:10.821Z,58.30
2022-10-01T06:45:12.719Z,58.10
2022-10-01T06:46:14.524Z,58.95
2022-10-01T06:47:16.506Z,59.98
2022-10-01T06:48:20.206Z,61.04
2022-10-01T06:49:22.777Z,62.14
2022-10-01T06:50:25.990Z,63.57
2022-10-01T06:51:46.209Z,65.37
2022-10-01T06:52:50.856Z,65.39
2022-10-01T06:53:52.716Z,64.41
2022-10-01T06:54:54.479Z,63.42
2022-10-01T06:55:56.470Z,62.54
2022-10-01T06:56:58.266Z,61.67
2022-10-01T06:58:01.364Z,61.04
2022-10-01T06:59:03.962Z,60.57
2022-10-01T07:00:06.849Z,60.07
2022-10-01T07:01:09.892Z,59.66
2022-10-01T07:02:30.195Z,59.16
2022-10-01T07:03:32.225Z,58.01
2022-10-01T07:04:34.083Z,58.13
2022-10-01T07:05:35.779Z,58.51
2022-10-01T07:06:37.411Z,59.72
2022-10-01T07:07:39.630Z,61.39
2022-10-01T07:08:41.596Z,62.22
2022-10-01T07:09:43.505Z,63.95
2022-10-01T07:10:45.667Z,65.56
2022-10-01T07:11:47.499Z,65.76
2022-10-01T07:12:50.093Z,65.05
2022-10-01T07:13:54.481Z,64.10
2022-10-01T07:14:56.948Z,63.07
2022-10-01T07:15:58.687Z,62.24
2022-10-01T07:17:00.711Z,61.55
2022-10-01T07:18:02.792Z,61.02
2022-10-01T07:19:04.576Z,60.46
2022-10-01T07:20:06.683Z,59.95
2022-10-01T07:21:08.539Z,59.49
2022-10-01T07:22:10.508Z,58.69
2022-10-01T07:23:14.534Z,57.98
2022-10-01T07:24:16.491Z,58.44
2022-10-01T07:25:18.348Z,59.23
2022-10-01T07:26:20.261Z,59.74
2022-10-01T07:27:21.917Z,61.02
2022-10-01T07:28:25.639Z,62.62
2022-10-01T07:29:27.880Z,64.66
2022-10-01T07:30:30.042Z,65.84
2022-10-01T07:31:33.121Z,65.84
2022-10-01T07:32:35.442Z,65.09
2022-10-01T07:33:38.153Z,64.01
2022-10-01T07:34:40.362Z,63.05
2022-10-01T07:35:42.330Z,62.02
2022-10-01T07:36:45.472Z,61.33
2022-10-01T07:37:48.408Z,60.87
2022-10-01T07:38:51.267Z,60.34
2022-10-01T07:39:53.863Z,59.87
2022-10-01T07:40:55.557Z,59.61
2022-10-01T07:41:57.776Z,58.93
2022-10-01T07:42:59.470Z,58.06
2022-10-01T07:44:03.399Z,58.32
2022-10-01T07:45:06.690Z,58.97
2022-10-01T07:46:08.551Z,59.66
2022-10-01T07:47:12.367Z,60.98
2022-10-01T07:48:17.285Z,62.31
2022-10-01T07:49:19.122Z,63.91
2022-10-01T07:50:20.929Z,64.99
2022-10-01T07:51:23.546Z,65.10
2022-10-01T07:52:25.278Z,64.42
2022-10-01T07:53:27.610Z,63.34
2022-10-01T07:54:29.348Z,62.25
2022-10-01T07:55:32.834Z,61.42
2022-10-01T07:56:34.529Z,60.61
2022-10-01T07:57:36.516Z,60.02
2022-10-01T07:58:38.151Z,59.58
2022-10-01T07:59:40.981Z,58.65
2022-10-01T08:00:43.510Z,57.89
2022-10-01T08:01:49.697Z,58.26
2022-10-01T08:02:53.942Z,59.25
2022-10-01T08:03:55.712Z,60.16
2022-10-01T08:05:15.773Z,61.21
2022-10-01T08:06:23.325Z,62.60
2022-10-01T08:07:27.289Z,64.67
2022-10-01T08:08:31.131Z,65.38
2022-10-01T08:09:33.062Z,64.88
2022-10-01T08:10:37.427Z,63.99
2022-10-01T08:11:39.087Z,62.85
2022-10-01T08:12:42.817Z,61.78
2022-10-01T08:13:45.833Z,60.75
2022-10-01T08:14:47.930Z,60.09
2022-10-01T08:15:53.304Z,59.53
2022-10-01T08:16:56.284Z,58.26
2022-10-01T08:18:04.098Z,57.48
2022-10-01T08:19:08.027Z,57.82
2022-10-01T08:20:12.883Z,58.68
2022-10-01T08:21:14.517Z,59.69
2022-10-01T08:22:16.388Z,60.76
2022-10-01T08:23:18.041Z,61.92
2022-10-01T08:24:20.218Z,62.98
2022-10-01T08:25:21.900Z,64.42
2022-10-01T08:26:23.559Z,64.95
2022-10-01T08:27:26.500Z,64.49
2022-10-01T08:28:30.173Z,63.40
2022-10-01T08:29:33.902Z,62.06
2022-10-01T08:30:38.485Z,61.06
2022-10-01T08:31:41.125Z,60.27
2022-10-01T08:32:42.830Z,59.56
2022-10-01T08:33:44.781Z,58.61
2022-10-01T08:34:48.016Z,57.65
2022-10-01T08:35:49.943Z,57.65
2022-10-01T08:36:51.964Z,58.11
2022-10-01T08:37:56.581Z,59.26
2022-10-01T08:38:59.124Z,60.71
2022-10-01T08:40:01.054Z,61.58
2022-10-01T08:41:21.281Z,61.96
2022-10-01T08:42:52.541Z,63.15
2022-10-01T08:43:54.991Z,64.90
2022-10-01T08:44:57.745Z,64.84
2022-10-01T08:46:26.131Z,64.02
2022-10-01T08:47:39.639Z,62.26
2022-10-01T08:48:59.395Z,61.19
2022-10-01T08:50:29.897Z,60.07
2022-10-01T08:51:57.617Z,58.41
2022-10-01T08:53:04.832Z,57.43
2022-10-01T08:54:37.522Z,58.03
2022-10-01T08:55:41.621Z,59.48
2022-10-01T08:56:47.595Z,60.22
2022-10-01T08:58:03.582Z,61.69
2022-10-01T08:59:32.887Z,62.25
2022-10-01T09:00:41.838Z,63.28
2022-10-01T09:01:43.555Z,65.20
2022-10-01T09:02:47.825Z,65.32
2022-10-01T09:03:50.611Z,64.33
2022-10-01T09:05:01.225Z,63.09
2022-10-01T09:06:19.462Z,61.80
2022-10-01T09:08:09.545Z,60.06
2022-10-01T09:09:41.323Z,58.18
2022-10-01T09:10:53.183Z,56.99
2022-10-01T09:12:30.408Z,57.54
2022-10-01T09:13:54.420Z,58.89
2022-10-01T09:15:22.421Z,59.80
2022-10-01T09:16:48.589Z,61.28
2022-10-01T09:18:21.955Z,61.53
2022-10-01T09:19:57.621Z,62.79
2022-10-01T09:20:59.336Z,64.70
2022-10-01T09:22:10.986Z,64.29
2022-10-01T09:23:29.737Z,63.20
2022-10-01T09:24:45.531Z,61.08
2022-10-01T09:25:50.422Z,59.50
2022-10-01T09:26:52.063Z,57.83
2022-10-01T09:28:07.444Z,56.53
2022-10-01T09:29:17.371Z,56.50
2022-10-01T09:30:21.885Z,56.97
2022-10-01T09:31:41.060Z,58.14
2022-10-01T09:32:53.878Z,59.00
2022-10-01T09:34:10.963Z,59.69
2022-10-01T09:35:23.571Z,60.18
2022-10-01T09:36:51.808Z,60.90
2022-10-01T09:38:00.212Z,61.25
2022-10-01T09:39:30.426Z,61.78
2022-10-01T09:40:50.108Z,61.98
2022-10-01T09:41:52.126Z,62.90
2022-10-01T09:42:53.872Z,64.35
2022-10-01T09:43:56.852Z,64.67
2022-10-01T09:44:59.076Z,63.44
2022-10-01T09:46:05.241Z,61.37
2022-10-01T09:47:20.599Z,59.93
2022-10-01T09:48:24.886Z,57.22
2022-10-01T09:49:46.120Z,55.75
2022-10-01T09:50:58.960Z,55.53
2022-10-01T09:52:13.886Z,56.31
2022-10-01T09:53:26.328Z,57.21
2022-10-01T09:54:33.700Z,57.43
2022-10-01T09:55:42.967Z,57.57
2022-10-01T09:56:55.082Z,58.07
2022-10-01T09:58:16.434Z,58.82
2022-10-01T09:59:26.978Z,59.64
2022-10-01T10:00:28.754Z,60.56
2022-10-01T10:01:45.205Z,60.95
2022-10-01T10:02:49.874Z,61.14
2022-10-01T10:03:57.330Z,61.44
2022-10-01T10:05:04.286Z,61.91
2022-10-01T10:06:06.652Z,61.80
2022-10-01T10:07:17.696Z,61.97
2022-10-01T10:08:28.322Z,62.02
2022-10-01T10:09:33.055Z,62.21
2022-10-01T10:10:39.515Z,62.43
2022-10-01T10:11:42.987Z,63.36
2022-10-01T10:12:45.941Z,64.21
2022-10-01T10:13:54.306Z,63.64
2022-10-01T10:14:59.022Z,62.41
2022-10-01T10:16:20.343Z,60.28
2022-10-01T10:17:23.119Z,57.62
2022-10-01T10:18:35.575Z,56.03
2022-10-01T10:19:37.696Z,55.05
2022-10-01T10:20:50.905Z,55.23
2022-10-01T10:22:10.105Z,55.97
2022-10-01T10:23:16.835Z,57.19
2022-10-01T10:24:33.836Z,57.73
2022-10-01T10:25:35.566Z,57.96
2022-10-01T10:26:41.106Z,58.32
2022-10-01T10:27:55.810Z,58.59
2022-10-01T10:28:59.793Z,58.48
2022-10-01T10:30:13.569Z,58.80
2022-10-01T10:31:26.014Z,58.93
2022-10-01T10:32:29.213Z,59.10
2022-10-01T10:33:31.078Z,59.33
2022-10-01T10:34:41.066Z,59.71
2022-10-01T10:35:43.429Z,60.06
2022-10-01T10:36:47.010Z,60.88
2022-10-01T10:37:53.575Z,61.31
2022-10-01T10:38:58.445Z,60.68
2022-10-01T10:40:00.691Z,60.16
2022-10-01T10:41:03.915Z,59.87
2022-10-01T10:42:07.535Z,60.00
2022-10-01T10:43:22.880Z,60.27
2022-10-01T10:44:31.964Z,60.70
2022-10-01T10:45:42.493Z,60.55
2022-10-01T10:46:46.451Z,60.01
2022-10-01T10:47:52.726Z,59.46
2022-10-01T10:49:04.739Z,59.84
2022-10-01T10:50:27.136Z,60.10
2022-10-01T10:51:28.937Z,60.12
2022-10-01T10:52:36.315Z,60.49
2022-10-01T10:53:46.070Z,60.95
2022-10-01T10:54:50.767Z,60.97
2022-10-01T10:55:56.080Z,60.80
2022-10-01T10:57:02.746Z,60.67
2022-10-01T10:58:16.650Z,61.00
2022-10-01T10:59:18.513Z,60.47
2022-10-01T11:00:24.144Z,59.63
2022-10-01T11:01:28.973Z,59.59
2022-10-01T11:02:33.403Z,59.52
2022-10-01T11:03:38.497Z,59.23
2022-10-01T11:04:44.222Z,59.22
2022-10-01T11:05:45.916Z,59.25
2022-10-01T11:06:55.933Z,59.34
2022-10-01T11:08:02.925Z,59.47
2022-10-01T11:09:11.007Z,59.40
2022-10-01T11:10:32.712Z,59.07
2022-10-01T11:11:51.171Z,58.52
2022-10-01T11:13:26.875Z,58.56
2022-10-01T11:15:02.850Z,58.74
2022-10-01T11:16:40.537Z,58.69
2022-10-01T11:18:17.843Z,58.81
2022-10-01T11:19:22.033Z,59.39
2022-10-01T11:20:36.696Z,59.10
2022-10-01T11:22:13.316Z,58.88
2022-10-01T11:23:39.427Z,59.21
2022-10-01T11:25:11.657Z,59.26
2022-10-01T11:26:21.882Z,58.54
2022-10-01T11:27:36.156Z,58.23
2022-10-01T11:28:54.588Z,58.12
2022-10-01T11:30:09.536Z,58.18
2022-10-01T11:31:35.519Z,58.28
2022-10-01T11:33:23.176Z,57.48
2022-10-01T11:34:28.180Z,56.98
2022-10-01T11:35:55.421Z,56.80
2022-10-01T11:37:10.748Z,57.18
2022-10-01T11:38:37.899Z,56.55
2022-10-01T11:39:45.087Z,56.15
2022-10-01T11:40:55.977Z,55.72
2022-10-01T11:42:24.675Z,55.34
2022-10-01T11:43:38.808Z,54.96
2022-10-01T11:45:00.707Z,55.05
2022-10-01T11:46:19.253Z,54.42
2022-10-01T11:47:30.400Z,54.78
2022-10-01T11:48:41.326Z,54.96
2022-10-01T11:49:50.129Z,54.80
2022-10-01T11:51:00.222Z,54.31
2022-10-01T11:52:34.253Z,54.23
2022-10-01T11:53:50.358Z,54.94
2022-10-01T11:55:31.897Z,55.58
2022-10-01T11:57:07.432Z,56.03
2022-10-01T11:58:44.218Z,56.14
2022-10-01T12:00:00.058Z,56.25
2022-10-01T12:01:14.232Z,56.53
2022-10-01T12:02:31.571Z,56.98
2022-10-01T12:03:51.088Z,57.10
2022-10-01T12:05:00.039Z,57.23
2022-10-01T12:06:09.373Z,57.19
2022-10-01T12:07:39.979Z,56.97
2022-10-01T12:08:50.031Z,57.14
2022-10-01T12:10:07.488Z,57.66
2022-10-01T12:11:21.013Z,57.96
2022-10-01T12:12:35.216Z,57.92
2022-10-01T12:13:45.584Z,58.43
2022-10-01T12:15:23.008Z,58.91
2022-10-01T12:16:51.007Z,59.33
2022-10-01T12:18:01.323Z,59.59
2022-10-01T12:19:12.103Z,59.55
2022-10-01T12:20:24.968Z,59.64
2022-10-01T12:21:35.032Z,59.75
2022-10-01T12:22:41.286Z,60.05
2022-10-01T12:23:54.535Z,60.20
2022-10-01T12:24:56.215Z,60.25
2022-10-01T12:26:50.180Z,60.40
2022-10-01T12:28:12.492Z,60.06
2022-10-01T12:29:22.826Z,60.04
2022-10-01T12:30:31.977Z,60.42
2022-10-01T12:31:51.431Z,60.71
2022-10-01T12:33:05.527Z,61.00
2022-10-01T12:34:22.536Z,60.96
2022-10-01T12:35:42.301Z,61.08
2022-10-01T12:37:21.938Z,61.54
2022-10-01T12:38:41.183Z,61.51
2022-10-01T12:40:05.827Z,61.79
2022-10-01T12:41:37.558Z,62.07
2022-10-01T12:43:01.938Z,62.69
2022-10-01T12:44:08.378Z,64.12
2022-10-01T12:45:49.746Z,63.84
2022-10-01T12:47:28.027Z,61.21
2022-10-01T12:48:48.547Z,59.02
2022-10-01T12:50:18.036Z,56.06
2022-10-01T12:51:22.469Z,54.83
2022-10-01T12:53:00.504Z,54.82
2022-10-01T12:54:17.008Z,55.82
2022-10-01T12:55:40.736Z,56.59
2022-10-01T12:56:57.524Z,57.36
2022-10-01T12:58:31.305Z,58.16
2022-10-01T12:59:43.388Z,59.01
2022-10-01T13:01:13.150Z,59.81
2022-10-01T13:02:46.214Z,60.63
2022-10-01T13:04:09.932Z,61.40
2022-10-01T13:05:39.123Z,61.95
2022-10-01T13:07:17.337Z,62.65
2022-10-01T13:08:47.931Z,64.15
2022-10-01T13:10:06.101Z,63.75
2022-10-01T13:11:20.772Z,61.64
2022-10-01T13:12:41.003Z,59.55
2022-10-01T13:13:43.504Z,57.16
2022-10-01T13:14:46.995Z,56.02
2022-10-01T13:16:00.249Z,55.87
2022-10-01T13:17:18.627Z,56.17
2022-10-01T13:18:33.032Z,56.74
2022-10-01T13:19:51.184Z,57.32
2022-10-01T13:21:11.424Z,58.20
2022-10-01T13:22:34.724Z,59.04
2022-10-01T13:23:43.861Z,59.59
2022-10-01T13:25:06.427Z,60.17
2022-10-01T13:26:20.016Z,60.67
2022-10-01T13:27:35.145Z,61.07
2022-10-01T13:28:55.768Z,61.89
2022-10-01T13:30:15.861Z,62.41
2022-10-01T13:31:21.118Z,63.73
2022-10-01T13:32:37.326Z,64.54
2022-10-01T13:33:39.053Z,63.22
2022-10-01T13:34:44.102Z,62.14
2022-10-01T13:35:54.614Z,60.43
2022-10-01T13:36:56.260Z,58.74
2022-10-01T13:37:58.645Z,56.99
2022-10-01T13:39:00.765Z,56.18
2022-10-01T13:40:03.568Z,56.48
2022-10-01T13:41:17.824Z,57.13
2022-10-01T13:42:26.094Z,58.00
2022-10-01T13:43:31.672Z,58.71
2022-10-01T13:44:35.879Z,59.31
2022-10-01T13:45:37.396Z,60.06
2022-10-01T13:47:03.306Z,60.67
2022-10-01T13:48:29.245Z,61.34
2022-10-01T13:49:32.187Z,61.99
2022-10-01T13:50:34.488Z,62.32
2022-10-01T13:51:39.261Z,62.62
2022-10-01T13:52:41.161Z,63.81
2022-10-01T13:53:42.833Z,64.15
2022-10-01T13:54:50.125Z,63.45
2022-10-01T13:55:54.267Z,62.26
2022-10-01T13:57:08.519Z,60.89
2022-10-01T13:58:38.744Z,59.01
2022-10-01T13:59:40.697Z,56.33
2022-10-01T14:00:53.589Z,55.91
2022-10-01T14:01:55.467Z,56.40
2022-10-01T14:03:04.998Z,57.32
2022-10-01T14:04:18.636Z,58.25
2022-10-01T14:05:32.837Z,59.08
2022-10-01T14:06:34.543Z,60.06
2022-10-01T14:07:39.962Z,60.44
2022-10-01T14:08:48.987Z,61.04
2022-10-01T14:09:57.496Z,61.63
2022-10-01T14:11:31.499Z,62.17
2022-10-01T14:12:55.509Z,63.74
2022-10-01T14:14:32.328Z,64.26
2022-10-01T14:16:00.275Z,62.60
2022-10-01T14:17:02.742Z,60.79
2022-10-01T14:18:12.325Z,59.67
2022-10-01T14:19:23.794Z,58.31
2022-10-01T14:20:34.178Z,56.64
2022-10-01T14:21:47.543Z,56.59
2022-10-01T14:23:06.523Z,57.25
2022-10-01T14:24:44.961Z,58.30
2022-10-01T14:26:15.576Z,59.48
2022-10-01T14:27:30.169Z,60.45
2022-10-01T14:29:07.182Z,61.17
2022-10-01T14:30:18.482Z,61.85
2022-10-01T14:31:56.244Z,62.66
2022-10-01T14:33:25.685Z,64.41
2022-10-01T14:34:43.789Z,63.83
2022-10-01T14:36:19.387Z,61.79
2022-10-01T14:37:22.326Z,59.98
2022-10-01T14:38:25.229Z,58.75
2022-10-01T14:39:29.751Z,57.17
2022-10-01T14:40:41.141Z,56.65
2022-10-01T14:41:43.182Z,56.95
2022-10-01T14:43:16.011Z,57.62
2022-10-01T14:44:25.921Z,58.57